createdAt,value
2022-09-02T00:01:42.448Z,2.1
2022-09-02T00:04:08.558Z,1.6
2022-09-02T00:06:33.672Z,1.8
2022-09-02T00:08:58.824Z,1.7
2022-09-02T00:11:24.871Z,2.1
2022-09-02T00:13:50.049Z,1.6
2022-09-02T00:16:15.123Z,2.9
2022-09-02T00:18:41.220Z,1.6
2022-09-02T00:21:07.298Z,1.5
2022-09-02T00:23:33.397Z,1.6
2022-09-02T00:25:59.495Z,1.6
2022-09-02T00:28:25.599Z,2.4
2022-09-02T00:30:51.683Z,1.5
2022-09-02T00:33:17.791Z,2.2
2022-09-02T00:35:43.896Z,1.8
2022-09-02T00:38:09.976Z,2.4
2022-09-02T00:40:36.103Z,1.6
2022-09-02T00:43:02.182Z,1.8
2022-09-02T00:45:28.265Z,1.4
2022-09-02T00:47:53.373Z,1.6
2022-09-02T00:50:19.476Z,2.1
2022-09-02T00:52:45.568Z,2.7
2022-09-02T00:55:11.664Z,1.9
2022-09-02T00:57:37.767Z,2.3
2022-09-02T01:00:03.897Z,1.4
2022-09-02T01:02:29.959Z,2.2
2022-09-02T01:04:55.075Z,1.8
2022-09-02T01:07:20.191Z,1.5
2022-09-02T01:09:45.311Z,1.3
2022-09-02T01:12:10.417Z,2
2022-09-02T01:14:36.515Z,2.3
2022-09-02T01:17:02.612Z,2.8
2022-09-02T01:19:28.707Z,1.5
2022-09-02T01:21:54.809Z,1.2
2022-09-02T01:24:20.911Z,2.5
2022-09-02T01:26:47.031Z,1.5
2022-09-02T01:29:13.093Z,2.6
2022-09-02T01:31:39.187Z,3.2
2022-09-02T01:34:05.297Z,1.8
2022-09-02T01:36:31.382Z,1.6
2022-09-02T01:38:57.481Z,3.2
2022-09-02T01:41:23.606Z,1.7
2022-09-02T01:43:48.687Z,1.8
2022-09-02T01:46:14.773Z,2.1
2022-09-02T01:48:40.885Z,1.8
2022-09-02T01:51:06.982Z,2.3
2022-09-02T01:53:33.074Z,2
2022-09-02T01:55:59.174Z,2
2022-09-02T01:58:25.283Z,1.8
2022-09-02T02:00:50.377Z,2.8
2022-09-02T02:03:15.530Z,2.1
2022-09-02T02:05:41.589Z,2.6
2022-09-02T02:08:07.687Z,2.1
2022-09-02T02:10:33.773Z,1.5
2022-09-02T02:12:59.874Z,1.9
2022-09-02T02:17:52.067Z,2
2022-09-02T02:20:18.172Z,1.9
2022-09-02T02:22:44.288Z,2.8
2022-09-02T02:25:10.366Z,3.1
2022-09-02T02:27:36.444Z,1.9
2022-09-02T02:30:02.546Z,2.4
2022-09-02T02:32:28.662Z,2.1
2022-09-02T02:34:53.745Z,1.8
2022-09-02T02:37:19.859Z,1.5
2022-09-02T02:39:45.946Z,2.1
2022-09-02T02:42:12.044Z,1.9
2022-09-02T02:44:38.129Z,1.7
2022-09-02T02:47:04.224Z,1.3
2022-09-02T02:49:30.328Z,2.1
2022-09-02T02:51:55.436Z,1.4
2022-09-02T02:54:20.549Z,1.8
2022-09-02T02:56:46.639Z,1.7
2022-09-02T02:59:12.768Z,1.8
2022-09-02T03:01:38.838Z,1.6
2022-09-02T03:04:04.927Z,1.5
2022-09-02T03:06:31.029Z,1.5
2022-09-02T03:08:57.130Z,1.1
2022-09-02T03:11:23.222Z,1.4
2022-09-02T03:13:49.306Z,1.3
2022-09-02T03:16:15.413Z,1.4
2022-09-02T03:18:41.511Z,1.6
2022-09-02T03:21:07.609Z,2.5
2022-09-02T03:23:33.707Z,1.5
2022-09-02T03:25:58.811Z,1.6
2022-09-02T03:28:24.901Z,1.4
2022-09-02T03:30:51.047Z,1.6
2022-09-02T03:33:17.097Z,1.6
2022-09-02T03:38:09.284Z,1.6
2022-09-02T03:40:35.370Z,2.4
2022-09-02T03:43:01.492Z,1.5
2022-09-02T03:45:26.620Z,1.8
2022-09-02T03:47:51.722Z,1.3
2022-09-02T03:50:16.837Z,1.5
2022-09-02T03:52:41.965Z,1.6
2022-09-02T03:55:07.107Z,1.8
2022-09-02T03:57:32.183Z,1.5
2022-09-02T03:59:57.298Z,1.5
2022-09-02T04:02:22.416Z,1.6
2022-09-02T04:04:48.517Z,2.1
2022-09-02T04:07:14.619Z,1.7
2022-09-02T04:09:40.697Z,2.1
2022-09-02T04:12:06.808Z,1.5
2022-09-02T04:14:32.892Z,1.5
2022-09-02T04:16:58.980Z,1.1
2022-09-02T04:19:25.087Z,1.9
2022-09-02T04:21:51.174Z,1.6
2022-09-02T04:24:17.270Z,2
2022-09-02T04:26:43.367Z,2.7
2022-09-02T04:29:09.470Z,2.1
2022-09-02T04:31:35.562Z,1.4
2022-09-02T04:34:00.653Z,1.4
2022-09-02T04:36:26.756Z,1.6
2022-09-02T04:38:52.857Z,2.2
2022-09-02T04:41:18.957Z,1.2
2022-09-02T04:43:45.053Z,1.6
2022-09-02T04:46:11.135Z,1.7
2022-09-02T04:48:37.245Z,1.7
2022-09-02T04:51:02.352Z,1.5
2022-09-02T04:53:27.481Z,1.7
2022-09-02T04:55:52.600Z,1.1
2022-09-02T04:58:17.693Z,1.5
2022-09-02T05:00:43.794Z,1.5
2022-09-02T05:03:09.900Z,1.6
2022-09-02T05:05:36.032Z,1.8
2022-09-02T05:08:02.085Z,2.6
2022-09-02T05:10:28.188Z,2.6
2022-09-02T05:12:54.275Z,1.5
2022-09-02T05:15:20.376Z,1.6
2022-09-02T05:17:46.473Z,1.6
2022-09-02T05:20:11.590Z,2
2022-09-02T05:22:37.685Z,1.3
2022-09-02T05:25:03.770Z,1.4
2022-09-02T05:27:29.870Z,0.1
2022-09-02T05:29:55.976Z,0.1
2022-09-02T05:32:22.057Z,0
2022-09-02T05:34:48.152Z,0.1
2022-09-02T05:37:14.279Z,1.3
2022-09-02T05:39:40.358Z,0
2022-09-02T05:42:06.446Z,0
2022-09-02T05:44:32.534Z,0.2
2022-09-02T05:46:57.656Z,0.5
2022-09-02T05:49:22.779Z,0.2
2022-09-02T05:51:48.894Z,0.8
2022-09-02T05:54:13.989Z,0.4
2022-09-02T05:56:39.110Z,0.1
2022-09-02T05:59:05.195Z,0.1
2022-09-02T06:01:31.310Z,0.2
2022-09-02T06:03:57.380Z,0.2
2022-09-02T06:06:23.490Z,0.4
2022-09-02T06:08:49.608Z,0.3
2022-09-02T06:11:15.673Z,0.4
2022-09-02T06:13:41.761Z,0.2
2022-09-02T06:16:07.869Z,0.1
2022-09-02T06:18:33.957Z,0.1
2022-09-02T06:21:00.057Z,0.2
2022-09-02T06:23:26.163Z,0.1
2022-09-02T06:25:52.251Z,0.5
2022-09-02T06:28:17.349Z,0.4
2022-09-02T06:30:43.479Z,0.3
2022-09-02T06:33:09.550Z,0.4
2022-09-02T06:35:35.630Z,0.5
2022-09-02T06:38:01.743Z,0.1
2022-09-02T06:40:28.092Z,0.3
2022-09-02T06:42:53.932Z,0.3
2022-09-02T06:45:19.058Z,0.2
2022-09-02T06:47:44.161Z,0.5
2022-09-02T06:50:10.302Z,0.3
2022-09-02T06:52:36.348Z,0.2
2022-09-02T06:55:02.488Z,0.8
2022-09-02T06:57:28.536Z,0.1
2022-09-02T06:59:54.625Z,0.8
2022-09-02T07:02:20.731Z,0.4
2022-09-02T07:04:46.883Z,0.1
2022-09-02T07:07:12.924Z,0.8
2022-09-02T07:09:39.036Z,0.4
2022-09-02T07:12:05.133Z,0.4
2022-09-02T07:14:31.205Z,0.2
2022-09-02T07:16:57.309Z,0.5
2022-09-02T07:19:22.462Z,0.3
2022-09-02T07:21:48.544Z,0.2
2022-09-02T07:24:14.657Z,0.2
2022-09-02T07:26:40.686Z,0.7
2022-09-02T07:29:06.801Z,0.6
2022-09-02T07:31:32.877Z,0.3
2022-09-02T07:33:59.022Z,0.7
2022-09-02T07:36:24.104Z,0.8
2022-09-02T07:38:49.214Z,0.9
2022-09-02T07:41:14.351Z,0.7
2022-09-02T07:43:39.470Z,0.8
2022-09-02T07:46:04.571Z,1.1
2022-09-02T07:48:29.682Z,0.5
2022-09-02T07:50:55.775Z,0.9
2022-09-02T07:53:21.868Z,0.4
2022-09-02T07:55:47.969Z,0.7
2022-09-02T07:58:14.099Z,0.5
2022-09-02T08:00:40.165Z,0.5
2022-09-02T08:03:06.273Z,1.6
2022-09-02T08:05:32.343Z,0.8
2022-09-02T08:07:58.435Z,0.7
2022-09-02T08:10:24.540Z,1.1
2022-09-02T08:12:50.676Z,1
2022-09-02T08:15:16.753Z,0.9
2022-09-02T08:17:42.815Z,1.1
2022-09-02T08:20:07.942Z,0.8
2022-09-02T08:22:34.035Z,1.2
2022-09-02T08:25:00.135Z,1.1
2022-09-02T08:27:26.218Z,1
2022-09-02T08:29:52.316Z,1.1
2022-09-02T08:32:18.414Z,0.9
2022-09-02T08:34:44.512Z,0.9
2022-09-02T08:37:09.624Z,0.7
2022-09-02T08:39:35.719Z,1.2
2022-09-02T08:42:00.827Z,1.2
2022-09-02T08:44:26.931Z,1.6
2022-09-02T08:46:53.038Z,0.8
2022-09-02T08:49:19.124Z,1.2
2022-09-02T08:51:45.210Z,1.1
2022-09-02T08:54:11.306Z,1
2022-09-02T08:56:37.398Z,0.7
2022-09-02T08:59:03.497Z,0.9
2022-09-02T09:01:29.588Z,1
2022-09-02T09:03:55.689Z,0.9
2022-09-02T09:06:21.788Z,0.6
2022-09-02T09:08:47.880Z,0.7
2022-09-02T09:11:13.981Z,0.7
2022-09-02T09:13:39.091Z,0.6
2022-09-02T09:16:05.174Z,1.4
2022-09-02T09:18:31.280Z,1.1
2022-09-02T09:20:57.366Z,0.7
2022-09-02T09:23:23.489Z,1.9
2022-09-02T09:25:49.557Z,1.3
2022-09-02T09:28:14.687Z,0.8
2022-09-02T09:30:39.799Z,0.9
2022-09-02T09:33:05.890Z,0.8
2022-09-02T09:35:31.983Z,1
2022-09-02T09:37:58.082Z,0.7
2022-09-02T09:40:24.172Z,0.5
2022-09-02T09:42:50.313Z,0.8
2022-09-02T09:45:16.362Z,1.2
2022-09-02T09:47:42.474Z,1.2
2022-09-02T09:50:08.593Z,1.1
2022-09-02T09:52:34.649Z,0.9
2022-09-02T09:55:00.745Z,0.6
2022-09-02T10:02:19.039Z,0.8
2022-09-02T10:04:44.173Z,0.7
2022-09-02T10:07:09.305Z,1.2
2022-09-02T10:09:34.396Z,1.2
2022-09-02T10:11:59.510Z,0.7
2022-09-02T10:14:25.606Z,0.7
2022-09-02T10:21:43.882Z,0.6
2022-09-02T10:24:09.972Z,0.7
2022-09-02T10:29:02.163Z,0.5
2022-09-02T10:31:28.261Z,0.6
2022-09-02T10:33:54.372Z,0.7
2022-09-02T10:36:20.458Z,0.7
2022-09-02T10:38:46.569Z,0.6
2022-09-02T10:41:12.639Z,1.2
2022-09-02T10:43:37.764Z,3.5
2022-09-02T10:46:02.883Z,1.3
2022-09-02T10:48:28.966Z,1.1
2022-09-02T10:50:55.076Z,0.8
2022-09-02T10:53:21.171Z,1
2022-09-02T10:55:47.259Z,1.1
2022-09-02T10:58:13.619Z,0.4
2022-09-02T11:00:39.440Z,1.7
2022-09-02T11:03:05.549Z,2.3
2022-09-02T11:05:31.643Z,1
2022-09-02T11:07:57.737Z,0.8
2022-09-02T11:10:22.854Z,0.8
2022-09-02T11:12:47.995Z,0.8
2022-09-02T11:15:13.079Z,0.5
2022-09-02T11:17:38.272Z,0.6
2022-09-02T11:20:04.306Z,0.7
2022-09-02T11:22:30.441Z,0.5
2022-09-02T11:24:56.544Z,0.9
2022-09-02T11:27:22.564Z,1.2
2022-09-02T11:29:48.757Z,1
2022-09-02T11:32:14.831Z,0.6
2022-09-02T11:34:40.856Z,0.8
2022-09-02T11:37:07.043Z,0.9
2022-09-02T11:39:33.129Z,4.3
2022-09-02T11:41:58.223Z,3.2
2022-09-02T11:44:23.346Z,0.7
2022-09-02T11:46:49.366Z,0.8
2022-09-02T11:49:15.481Z,1.2
2022-09-02T11:51:41.624Z,0.7
2022-09-02T11:54:07.745Z,0.9
2022-09-02T11:56:33.822Z,0.8
2022-09-02T11:58:59.924Z,0.7
2022-09-02T12:01:25.949Z,0.6
2022-09-02T12:03:52.044Z,0.9
2022-09-02T12:06:18.140Z,1
2022-09-02T12:08:44.323Z,1.1
2022-09-02T12:11:10.399Z,0.7
2022-09-02T12:13:36.514Z,0.8
2022-09-02T12:16:01.541Z,1.1
2022-09-02T12:18:27.676Z,1
2022-09-02T12:20:53.727Z,1.3
2022-09-02T12:23:19.877Z,1.3
2022-09-02T12:25:45.924Z,1.1
2022-09-02T12:28:12.034Z,0.6
2022-09-02T12:30:38.105Z,1.2
2022-09-02T12:33:03.240Z,0.7
2022-09-02T12:35:28.421Z,0.7
2022-09-02T12:37:53.492Z,0.8
2022-09-02T12:40:18.583Z,0.5
2022-09-02T12:42:44.757Z,1.2
2022-09-02T12:45:10.768Z,0.9
2022-09-02T12:47:36.973Z,1
2022-09-02T12:50:02.989Z,1.1
2022-09-02T12:52:29.062Z,1.2
2022-09-02T12:54:55.142Z,1
2022-09-02T12:57:21.249Z,0.7
2022-09-02T12:59:47.330Z,1.2
2022-09-02T13:02:13.433Z,1.2
2022-09-02T13:04:39.533Z,0.9
2022-09-02T13:07:05.618Z,0.8
2022-09-02T13:09:31.715Z,0.8
2022-09-02T13:11:56.830Z,1.1
2022-09-02T13:14:22.931Z,0.9
2022-09-02T13:16:49.022Z,1.7
2022-09-02T13:19:15.118Z,1
2022-09-02T13:21:41.204Z,1.4
2022-09-02T13:24:07.334Z,1.3
2022-09-02T13:26:33.406Z,1.3
2022-09-02T13:28:58.538Z,1
2022-09-02T13:31:23.650Z,1.1
2022-09-02T13:33:49.739Z,0.9
2022-09-02T13:36:15.842Z,0.9
2022-09-02T13:38:41.948Z,1.1
2022-09-02T13:41:08.038Z,1.4
2022-09-02T13:43:34.133Z,0.9
2022-09-02T13:46:00.232Z,1.3
2022-09-02T13:48:26.336Z,0.9
2022-09-02T13:50:52.404Z,1.5
2022-09-02T13:53:18.511Z,1.1
2022-09-02T13:55:44.604Z,1.2
2022-09-02T13:58:10.706Z,1.3
2022-09-02T14:00:36.802Z,1.5
2022-09-02T14:03:01.974Z,1.4
2022-09-02T14:05:28.032Z,1.2
2022-09-02T14:07:54.099Z,1.4
2022-09-02T14:10:20.212Z,1.5
2022-09-02T14:12:46.279Z,1.4
2022-09-02T14:15:12.380Z,1.5
2022-09-02T14:17:38.530Z,1.4
2022-09-02T14:20:03.600Z,1.5
2022-09-02T14:22:28.759Z,1.4
2022-09-02T14:24:54.810Z,1.3
2022-09-02T14:27:20.899Z,1.3
2022-09-02T14:29:47.056Z,1.2
2022-09-02T14:32:13.119Z,1.5
2022-09-02T14:34:39.184Z,1.6
2022-09-02T14:37:05.296Z,1.4
2022-09-02T14:39:31.388Z,1.3
2022-09-02T14:41:57.495Z,1.5
2022-09-02T14:44:23.579Z,1.5
2022-09-02T14:46:49.680Z,0.9
2022-09-02T14:49:15.780Z,1.3
2022-09-02T14:51:41.865Z,1
2022-09-02T14:54:06.995Z,1.3
2022-09-02T14:56:33.069Z,1.4
2022-09-02T14:58:59.169Z,1.3
2022-09-02T15:01:25.282Z,1.4
2022-09-02T15:03:51.359Z,1.4
2022-09-02T15:06:17.467Z,1.4
2022-09-02T15:08:43.569Z,1.4
2022-09-02T15:11:08.690Z,1.4
2022-09-02T15:13:33.820Z,1.1
2022-09-02T15:15:59.907Z,0.9
2022-09-02T15:18:25.994Z,1
2022-09-02T15:20:52.107Z,1.7
2022-09-02T15:23:18.185Z,1.2
2022-09-02T15:25:44.281Z,1.2
2022-09-02T15:28:10.376Z,1.2
2022-09-02T15:30:36.477Z,1
2022-09-02T15:33:02.612Z,0.7
2022-09-02T15:35:28.654Z,1.1
2022-09-02T15:37:54.763Z,0.8
2022-09-02T15:40:20.861Z,1.1
2022-09-02T15:42:46.951Z,1.3
2022-09-02T15:45:12.099Z,1.5
2022-09-02T15:47:38.176Z,1
2022-09-02T15:50:04.262Z,1
2022-09-02T15:52:30.370Z,1.3
2022-09-02T15:54:56.459Z,1.1
2022-09-02T15:57:22.554Z,0.8
2022-09-02T15:59:48.649Z,1.1
2022-09-02T16:02:13.769Z,1.3
2022-09-02T16:04:38.894Z,1.1
2022-09-02T16:07:03.993Z,0.9
2022-09-02T16:09:29.135Z,1.1
2022-09-02T16:11:55.211Z,1
2022-09-02T16:14:21.317Z,1.7
2022-09-02T16:16:47.417Z,1.1
2022-09-02T16:19:13.491Z,1.2
2022-09-02T16:21:39.591Z,1.4
2022-09-02T16:24:05.720Z,1.4
2022-09-02T16:26:31.798Z,1.5
2022-09-02T16:28:57.886Z,1.3
2022-09-02T16:31:23.987Z,2.4
2022-09-02T16:33:50.075Z,1.7
2022-09-02T16:36:16.178Z,1.3
2022-09-02T16:38:42.290Z,1.2
2022-09-02T16:41:07.439Z,1.6
2022-09-02T16:43:32.501Z,1.4
2022-09-02T16:45:57.636Z,1.2
2022-09-02T16:48:22.756Z,1.2
2022-09-02T16:50:48.839Z,1.1
2022-09-02T16:53:14.933Z,1.3
2022-09-02T16:55:41.020Z,1.3
2022-09-02T16:58:07.123Z,1.2
2022-09-02T17:00:33.251Z,1.1
2022-09-02T17:02:59.333Z,1.1
2022-09-02T17:05:25.411Z,1.2
2022-09-02T17:07:51.511Z,1.9
2022-09-02T17:10:17.589Z,1.2
2022-09-02T17:12:43.722Z,1.2
2022-09-02T17:15:09.792Z,1.3
2022-09-02T17:17:35.911Z,1
2022-09-02T17:20:01.009Z,1.2
2022-09-02T17:22:27.107Z,0.7
2022-09-02T17:24:53.190Z,0.6
2022-09-02T17:27:19.296Z,0.7
2022-09-02T17:29:45.376Z,1.5
2022-09-02T17:32:11.466Z,1.9
2022-09-02T17:34:37.567Z,1.3
2022-09-02T17:37:02.702Z,0.3
2022-09-02T17:39:27.806Z,0.6
2022-09-02T17:41:53.894Z,0.6
2022-09-02T17:44:20.021Z,0.3
2022-09-02T17:46:46.085Z,0.4
2022-09-02T17:49:12.181Z,0.3
2022-09-02T17:51:38.268Z,0.2
2022-09-02T17:54:04.373Z,0.5
2022-09-02T17:56:30.456Z,0.1
2022-09-02T17:58:56.557Z,0.4
2022-09-02T18:01:22.661Z,0.2
2022-09-02T18:03:48.755Z,0.3
2022-09-02T18:06:14.840Z,0.3
2022-09-02T18:08:40.971Z,0.4
2022-09-02T18:11:06.067Z,0.5
2022-09-02T18:13:32.151Z,0.3
2022-09-02T18:15:58.232Z,0.6
2022-09-02T18:18:24.341Z,0.1
2022-09-02T18:20:50.435Z,0.4
2022-09-02T18:23:16.532Z,0.7
2022-09-02T18:25:42.629Z,0
2022-09-02T18:28:07.735Z,0.3
2022-09-02T18:30:32.852Z,0.3
2022-09-02T18:32:57.980Z,0.2
2022-09-02T18:35:23.103Z,0.1
2022-09-02T18:37:49.194Z,0.5
2022-09-02T18:40:15.326Z,0.3
2022-09-02T18:42:41.366Z,0.1
2022-09-02T18:45:07.526Z,0.4
2022-09-02T18:47:33.582Z,0.8
2022-09-02T18:49:59.665Z,0.3
2022-09-02T18:52:25.766Z,0.5
2022-09-02T18:57:17.940Z,1.3
2022-09-02T18:59:44.086Z,0.3
2022-09-02T19:02:10.144Z,0.3
2022-09-02T19:04:36.259Z,0.1
2022-09-02T19:07:01.347Z,0.2
2022-09-02T19:09:27.494Z,5.4
2022-09-02T19:11:53.531Z,0.3
2022-09-02T19:14:19.668Z,1.5
2022-09-02T19:16:45.752Z,0.1
2022-09-02T19:19:11.830Z,0.1
2022-09-02T19:21:37.975Z,0.1
2022-09-02T19:24:04.021Z,0.4
2022-09-02T19:26:29.134Z,0.3
2022-09-02T19:28:54.276Z,0.2
2022-09-02T19:31:19.357Z,0.1
2022-09-02T19:33:44.471Z,0.4
2022-09-02T19:36:09.640Z,0.1
2022-09-02T19:38:34.702Z,0.2
2022-09-02T19:40:59.834Z,0.3
2022-09-02T19:43:24.947Z,0.8
2022-09-02T19:45:51.027Z,0.4
2022-09-02T19:48:17.166Z,0
2022-09-02T19:50:43.235Z,0.1
2022-09-02T19:53:09.325Z,0.1
2022-09-02T19:55:35.419Z,0.1
2022-09-02T19:58:01.518Z,0.3
2022-09-02T20:00:27.621Z,0
2022-09-02T20:02:53.758Z,0
2022-09-02T20:05:19.792Z,0.3
2022-09-02T20:07:45.878Z,0
2022-09-02T20:10:11.978Z,0.1
2022-09-02T20:12:38.090Z,0.2
2022-09-02T20:15:04.166Z,1
2022-09-02T20:17:29.296Z,0.5
2022-09-02T20:19:55.387Z,0.9
2022-09-02T20:22:21.469Z,0
2022-09-02T20:24:47.569Z,0
2022-09-02T20:27:13.668Z,0.2
2022-09-02T20:29:39.776Z,0.4
2022-09-02T20:32:05.847Z,0.4
2022-09-02T20:34:31.949Z,0.1
2022-09-02T20:36:57.078Z,0.6
2022-09-02T20:39:22.185Z,0.1
2022-09-02T20:41:48.288Z,0.3
2022-09-02T20:44:13.396Z,0.1
2022-09-02T20:46:38.498Z,0.4
2022-09-02T20:49:04.627Z,0.4
2022-09-02T20:51:30.707Z,0.3
2022-09-02T20:53:56.791Z,0.3
2022-09-02T20:56:22.907Z,0.2
2022-09-02T20:58:49.004Z,0.2
2022-09-02T21:01:15.087Z,0.5
2022-09-02T21:03:41.192Z,0.3
2022-09-02T21:06:07.263Z,0.3
2022-09-02T21:08:33.376Z,0.4
2022-09-02T21:10:59.472Z,0.5
2022-09-02T21:13:25.549Z,0.3
2022-09-02T21:15:51.646Z,0.2
2022-09-02T21:18:16.747Z,0.3
2022-09-02T21:20:42.870Z,1.4
2022-09-02T21:23:08.953Z,1.1
2022-09-02T21:25:35.036Z,0.3
2022-09-02T21:28:01.187Z,0.9
2022-09-02T21:30:27.241Z,0.3
2022-09-02T21:32:53.371Z,0.2
2022-09-02T21:35:18.448Z,0.3
2022-09-02T21:37:43.562Z,0.3
2022-09-02T21:40:09.668Z,0.1
2022-09-02T21:42:34.806Z,0.1
2022-09-02T21:44:59.899Z,0.3
2022-09-02T21:47:25.993Z,0
2022-09-02T21:49:52.094Z,0.3
2022-09-02T21:52:18.177Z,0.2
2022-09-02T21:54:44.278Z,0
2022-09-02T21:57:10.366Z,0.8
2022-09-02T21:59:36.481Z,0.3
2022-09-02T22:02:02.570Z,0.2
2022-09-02T22:04:28.678Z,0.2
2022-09-02T22:06:54.756Z,0.1
2022-09-02T22:09:20.868Z,0.4
2022-09-02T22:11:46.975Z,0.2
2022-09-02T22:14:13.075Z,0.5
2022-09-02T22:16:38.141Z,0.1
2022-09-02T22:19:04.249Z,0
2022-09-02T22:21:30.351Z,0.3
2022-09-02T22:23:56.459Z,0.3
2022-09-02T22:26:22.536Z,0.2
2022-09-02T22:28:48.624Z,0.4
2022-09-02T22:31:14.734Z,0.2
2022-09-02T22:33:39.869Z,0.5
2022-09-02T22:36:04.995Z,0.5
2022-09-02T22:38:30.070Z,0.5
2022-09-02T22:40:55.179Z,0.1
2022-09-02T22:43:21.327Z,0.3
2022-09-02T22:45:47.425Z,0.1
2022-09-02T22:48:13.510Z,0.2
2022-09-02T22:50:39.595Z,0
2022-09-02T22:53:05.667Z,0.2
2022-09-02T22:55:31.750Z,0.1
2022-09-02T22:57:57.850Z,0.2
2022-09-02T23:00:23.953Z,0.1
2022-09-02T23:02:50.058Z,0
2022-09-02T23:05:16.144Z,0.1
2022-09-02T23:07:42.267Z,0.3
2022-09-02T23:10:08.326Z,0.2
2022-09-02T23:12:33.453Z,0.3
2022-09-02T23:14:59.544Z,0.2
2022-09-02T23:17:25.683Z,0.1
2022-09-02T23:19:51.738Z,0.1
2022-09-02T23:22:17.826Z,0
2022-09-02T23:27:10.001Z,0.1
2022-09-02T23:29:36.107Z,0.2
2022-09-02T23:32:01.223Z,0.1
2022-09-02T23:34:26.356Z,0.2
2022-09-02T23:36:52.424Z,0.1
2022-09-02T23:39:18.522Z,0
2022-09-02T23:41:44.628Z,0.2
2022-09-02T23:44:10.741Z,0.2
2022-09-02T23:46:36.817Z,0.2
2022-09-02T23:49:02.924Z,0.1
2022-09-02T23:51:29.006Z,0.3
2022-09-02T23:53:55.101Z,0.4
2022-09-02T23:56:21.217Z,0.1
2022-09-02T23:58:47.292Z,0.4
